sensor_id;sensor_type;location;lat;lon;timestamp;temperature;humidity
20722;DHT22;10522;52.198;9.890;2022-09-03T00:00:44;13.80;99.90
20722;DHT22;10522;52.198;9.890;2022-09-03T00:03:19;13.70;99.90
20722;DHT22;10522;52.198;9.890;2022-09-03T00:05:52;13.70;99.90
20722;DHT22;10522;52.198;9.890;2022-09-03T00:09:02;13.80;99.90
20722;DHT22;10522;52.198;9.890;2022-09-03T00:14:27;13.80;99.90
20722;DHT22;10522;52.198;9.890;2022-09-03T00:17:02;13.80;99.90
20722;DHT22;10522;52.198;9.890;2022-09-03T00:19:38;13.80;99.90
20722;DHT22;10522;52.198;9.890;2022-09-03T00:22:15;13.90;99.90
20722;DHT22;10522;52.198;9.890;2022-09-03T00:24:43;13.80;99.90
20722;DHT22;10522;52.198;9.890;2022-09-03T00:27:22;13.90;99.90
20722;DHT22;10522;52.198;9.890;2022-09-03T00:29:56;13.80;99.90
20722;DHT22;10522;52.198;9.890;2022-09-03T00:32:56;13.70;99.90
20722;DHT22;10522;52.198;9.890;2022-09-03T00:35:31;13.70;99.90
20722;DHT22;10522;52.198;9.890;2022-09-03T00:37:59;13.80;99.90
20722;DHT22;10522;52.198;9.890;2022-09-03T00:40:32;13.70;99.90
20722;DHT22;10522;52.198;9.890;2022-09-03T00:51:20;13.70;99.90
20722;DHT22;10522;52.198;9.890;2022-09-03T00:54:14;13.60;99.90
20722;DHT22;10522;52.198;9.890;2022-09-03T01:02:11;13.50;99.90
20722;DHT22;10522;52.198;9.890;2022-09-03T01:11:24;13.30;99.90
20722;DHT22;10522;52.198;9.890;2022-09-03T01:14:02;13.30;99.90
20722;DHT22;10522;52.198;9.890;2022-09-03T01:16:54;13.30;99.90
20722;DHT22;10522;52.198;9.890;2022-09-03T01:23:09;13.20;99.90
20722;DHT22;10522;52.198;9.890;2022-09-03T01:25:53;13.10;99.90
20722;DHT22;10522;52.198;9.890;2022-09-03T01:31:17;13.10;99.90
20722;DHT22;10522;52.198;9.890;2022-09-03T01:42:52;13.00;99.90
20722;DHT22;10522;52.198;9.890;2022-09-03T01:48:48;13.00;99.90
20722;DHT22;10522;52.198;9.890;2022-09-03T01:51:19;13.00;99.90
20722;DHT22;10522;52.198;9.890;2022-09-03T01:59:32;12.90;99.90
20722;DHT22;10522;52.198;9.890;2022-09-03T02:02:20;12.90;99.90
20722;DHT22;10522;52.198;9.890;2022-09-03T02:04:59;12.90;99.90
20722;DHT22;10522;52.198;9.890;2022-09-03T02:07:36;13.00;99.90
20722;DHT22;10522;52.198;9.890;2022-09-03T02:10:06;12.90;99.90
20722;DHT22;10522;52.198;9.890;2022-09-03T02:12:34;13.00;99.90
20722;DHT22;10522;52.198;9.890;2022-09-03T02:15:09;12.90;99.90
20722;DHT22;10522;52.198;9.890;2022-09-03T02:17:37;13.00;99.90
20722;DHT22;10522;52.198;9.890;2022-09-03T02:20:08;12.90;99.90
20722;DHT22;10522;52.198;9.890;2022-09-03T02:22:37;12.90;99.90
20722;DHT22;10522;52.198;9.890;2022-09-03T02:25:07;12.90;99.90
20722;DHT22;10522;52.198;9.890;2022-09-03T02:27:33;12.80;99.90
20722;DHT22;10522;52.198;9.890;2022-09-03T02:29:59;12.80;99.90
20722;DHT22;10522;52.198;9.890;2022-09-03T02:32:25;12.80;99.90
20722;DHT22;10522;52.198;9.890;2022-09-03T02:34:51;12.90;99.90
20722;DHT22;10522;52.198;9.890;2022-09-03T02:37:17;12.70;99.90
20722;DHT22;10522;52.198;9.890;2022-09-03T02:39:44;12.70;99.90
20722;DHT22;10522;52.198;9.890;2022-09-03T02:42:11;12.70;99.90
20722;DHT22;10522;52.198;9.890;2022-09-03T02:44:57;12.70;99.90
20722;DHT22;10522;52.198;9.890;2022-09-03T02:47:29;12.70;99.90
20722;DHT22;10522;52.198;9.890;2022-09-03T02:50:00;12.70;99.90
20722;DHT22;10522;52.198;9.890;2022-09-03T02:52:30;12.70;99.90
20722;DHT22;10522;52.198;9.890;2022-09-03T02:54:56;12.80;99.90
20722;DHT22;10522;52.198;9.890;2022-09-03T02:57:21;12.80;99.90
20722;DHT22;10522;52.198;9.890;2022-09-03T02:59:48;12.80;99.90
20722;DHT22;10522;52.198;9.890;2022-09-03T03:02:14;12.70;99.90
20722;DHT22;10522;52.198;9.890;2022-09-03T03:04:41;12.70;99.90
20722;DHT22;10522;52.198;9.890;2022-09-03T03:07:08;12.80;99.90
20722;DHT22;10522;52.198;9.890;2022-09-03T03:09:33;12.80;99.90
20722;DHT22;10522;52.198;9.890;2022-09-03T03:11:59;12.80;99.90
20722;DHT22;10522;52.198;9.890;2022-09-03T03:14:25;12.80;99.90
20722;DHT22;10522;52.198;9.890;2022-09-03T03:16:52;12.90;99.90
20722;DHT22;10522;52.198;9.890;2022-09-03T03:19:17;12.80;99.90
20722;DHT22;10522;52.198;9.890;2022-09-03T03:21:44;12.70;99.90
20722;DHT22;10522;52.198;9.890;2022-09-03T03:24:10;12.80;99.90
20722;DHT22;10522;52.198;9.890;2022-09-03T03:26:35;12.70;99.90
20722;DHT22;10522;52.198;9.890;2022-09-03T03:29:04;12.80;99.90
20722;DHT22;10522;52.198;9.890;2022-09-03T03:31:30;12.80;99.90
20722;DHT22;10522;52.198;9.890;2022-09-03T03:33:58;12.70;99.90
20722;DHT22;10522;52.198;9.890;2022-09-03T03:36:26;12.70;99.90
20722;DHT22;10522;52.198;9.890;2022-09-03T03:38:57;12.60;99.90
20722;DHT22;10522;52.198;9.890;2022-09-03T03:41:25;12.70;99.90
20722;DHT22;10522;52.198;9.890;2022-09-03T03:43:52;12.50;99.90
20722;DHT22;10522;52.198;9.890;2022-09-03T03:46:19;12.50;99.90
20722;DHT22;10522;52.198;9.890;2022-09-03T03:48:51;12.50;99.90
20722;DHT22;10522;52.198;9.890;2022-09-03T03:51:17;12.40;99.90
20722;DHT22;10522;52.198;9.890;2022-09-03T03:53:44;12.50;99.90
20722;DHT22;10522;52.198;9.890;2022-09-03T03:56:14;12.40;99.90
20722;DHT22;10522;52.198;9.890;2022-09-03T03:58:45;12.30;99.90
20722;DHT22;10522;52.198;9.890;2022-09-03T04:01:16;12.30;99.90
20722;DHT22;10522;52.198;9.890;2022-09-03T04:03:42;12.20;99.90
20722;DHT22;10522;52.198;9.890;2022-09-03T04:06:09;12.20;99.90
20722;DHT22;10522;52.198;9.890;2022-09-03T04:08:39;12.10;99.90
20722;DHT22;10522;52.198;9.890;2022-09-03T04:11:08;12.10;99.90
20722;DHT22;10522;52.198;9.890;2022-09-03T04:13:39;12.10;99.90
20722;DHT22;10522;52.198;9.890;2022-09-03T04:16:18;12.10;99.90
20722;DHT22;10522;52.198;9.890;2022-09-03T04:18:45;12.00;99.90
20722;DHT22;10522;52.198;9.890;2022-09-03T04:21:19;12.00;99.90
20722;DHT22;10522;52.198;9.890;2022-09-03T04:23:47;12.00;99.90
20722;DHT22;10522;52.198;9.890;2022-09-03T04:26:30;12.10;99.90
20722;DHT22;10522;52.198;9.890;2022-09-03T04:28:59;12.10;99.90
20722;DHT22;10522;52.198;9.890;2022-09-03T04:31:28;12.10;99.90
20722;DHT22;10522;52.198;9.890;2022-09-03T04:33:55;12.20;99.90
20722;DHT22;10522;52.198;9.890;2022-09-03T04:36:26;12.10;99.90
20722;DHT22;10522;52.198;9.890;2022-09-03T04:38:53;12.10;99.90
20722;DHT22;10522;52.198;9.890;2022-09-03T04:41:28;12.10;99.90
20722;DHT22;10522;52.198;9.890;2022-09-03T04:43:58;12.10;99.90
20722;DHT22;10522;52.198;9.890;2022-09-03T04:46:26;12.10;99.90
20722;DHT22;10522;52.198;9.890;2022-09-03T04:48:57;12.10;99.90
20722;DHT22;10522;52.198;9.890;2022-09-03T04:51:25;12.10;99.90
20722;DHT22;10522;52.198;9.890;2022-09-03T04:54:00;12.10;99.90
20722;DHT22;10522;52.198;9.890;2022-09-03T04:56:28;12.10;99.90
20722;DHT22;10522;52.198;9.890;2022-09-03T04:59:04;12.10;99.90
20722;DHT22;10522;52.198;9.890;2022-09-03T05:01:32;12.00;99.90
20722;DHT22;10522;52.198;9.890;2022-09-03T05:03:59;12.10;99.90
20722;DHT22;10522;52.198;9.890;2022-09-03T05:06:29;12.00;99.90
20722;DHT22;10522;52.198;9.890;2022-09-03T05:08:55;12.10;99.90
20722;DHT22;10522;52.198;9.890;2022-09-03T05:11:22;12.10;99.90
20722;DHT22;10522;52.198;9.890;2022-09-03T05:13:49;12.10;99.90
20722;DHT22;10522;52.198;9.890;2022-09-03T05:16:17;12.10;99.90
20722;DHT22;10522;52.198;9.890;2022-09-03T05:18:52;12.10;99.90
20722;DHT22;10522;52.198;9.890;2022-09-03T05:21:19;12.20;99.90
20722;DHT22;10522;52.198;9.890;2022-09-03T05:23:46;12.10;99.90
20722;DHT22;10522;52.198;9.890;2022-09-03T05:26:24;12.10;99.90
20722;DHT22;10522;52.198;9.890;2022-09-03T05:28:55;12.20;99.90
20722;DHT22;10522;52.198;9.890;2022-09-03T05:31:22;12.20;99.90
20722;DHT22;10522;52.198;9.890;2022-09-03T05:33:53;12.00;99.90
20722;DHT22;10522;52.198;9.890;2022-09-03T05:36:21;12.10;99.90
20722;DHT22;10522;52.198;9.890;2022-09-03T05:38:51;12.10;99.90
20722;DHT22;10522;52.198;9.890;2022-09-03T05:41:21;12.10;99.90
20722;DHT22;10522;52.198;9.890;2022-09-03T05:43:50;12.20;99.90
20722;DHT22;10522;52.198;9.890;2022-09-03T05:46:27;12.20;99.90
20722;DHT22;10522;52.198;9.890;2022-09-03T05:48:58;12.30;99.90
20722;DHT22;10522;52.198;9.890;2022-09-03T05:51:24;12.30;99.90
20722;DHT22;10522;52.198;9.890;2022-09-03T05:53:50;12.40;99.90
20722;DHT22;10522;52.198;9.890;2022-09-03T05:56:19;12.40;99.90
20722;DHT22;10522;52.198;9.890;2022-09-03T05:58:50;12.50;99.90
20722;DHT22;10522;52.198;9.890;2022-09-03T06:01:24;12.50;99.90
20722;DHT22;10522;52.198;9.890;2022-09-03T06:03:57;12.60;99.90
20722;DHT22;10522;52.198;9.890;2022-09-03T06:06:24;12.70;99.90
20722;DHT22;10522;52.198;9.890;2022-09-03T06:08:55;12.70;99.90
20722;DHT22;10522;52.198;9.890;2022-09-03T06:11:23;12.80;99.90
20722;DHT22;10522;52.198;9.890;2022-09-03T06:13:51;12.90;99.90
20722;DHT22;10522;52.198;9.890;2022-09-03T06:16:16;13.00;99.90
20722;DHT22;10522;52.198;9.890;2022-09-03T06:18:42;13.10;99.90
20722;DHT22;10522;52.198;9.890;2022-09-03T06:21:08;13.20;99.90
20722;DHT22;10522;52.198;9.890;2022-09-03T06:23:34;13.30;99.90
20722;DHT22;10522;52.198;9.890;2022-09-03T06:28:26;13.40;99.90
20722;DHT22;10522;52.198;9.890;2022-09-03T06:30:52;13.40;99.90
20722;DHT22;10522;52.198;9.890;2022-09-03T06:33:18;13.50;99.90
20722;DHT22;10522;52.198;9.890;2022-09-03T06:35:44;13.70;99.90
20722;DHT22;10522;52.198;9.890;2022-09-03T06:38:11;13.80;99.90
20722;DHT22;10522;52.198;9.890;2022-09-03T06:40:37;13.80;99.90
20722;DHT22;10522;52.198;9.890;2022-09-03T06:43:03;13.90;99.90
20722;DHT22;10522;52.198;9.890;2022-09-03T06:45:29;14.10;99.90
20722;DHT22;10522;52.198;9.890;2022-09-03T06:47:55;14.20;99.90
20722;DHT22;10522;52.198;9.890;2022-09-03T06:50:21;14.40;99.90
20722;DHT22;10522;52.198;9.890;2022-09-03T06:52:52;14.60;99.90
20722;DHT22;10522;52.198;9.890;2022-09-03T06:55:20;14.70;99.90
20722;DHT22;10522;52.198;9.890;2022-09-03T06:57:47;14.90;99.90
20722;DHT22;10522;52.198;9.890;2022-09-03T07:00:13;15.00;99.90
20722;DHT22;10522;52.198;9.890;2022-09-03T07:02:39;15.20;99.90
20722;DHT22;10522;52.198;9.890;2022-09-03T07:05:06;15.30;99.90
20722;DHT22;10522;52.198;9.890;2022-09-03T07:07:32;15.50;99.90
20722;DHT22;10522;52.198;9.890;2022-09-03T07:09:58;15.70;99.90
20722;DHT22;10522;52.198;9.890;2022-09-03T07:12:23;15.90;99.90
20722;DHT22;10522;52.198;9.890;2022-09-03T07:14:49;16.00;99.90
20722;DHT22;10522;52.198;9.890;2022-09-03T07:17:15;15.90;99.90
20722;DHT22;10522;52.198;9.890;2022-09-03T07:19:40;16.10;99.90
20722;DHT22;10522;52.198;9.890;2022-09-03T07:22:06;15.90;99.90
20722;DHT22;10522;52.198;9.890;2022-09-03T07:24:33;15.80;99.90
20722;DHT22;10522;52.198;9.890;2022-09-03T07:27:00;15.90;99.90
20722;DHT22;10522;52.198;9.890;2022-09-03T07:29:26;15.80;99.90
20722;DHT22;10522;52.198;9.890;2022-09-03T07:31:53;15.90;99.90
20722;DHT22;10522;52.198;9.890;2022-09-03T07:34:19;16.00;99.90
20722;DHT22;10522;52.198;9.890;2022-09-03T07:36:46;16.10;99.90
20722;DHT22;10522;52.198;9.890;2022-09-03T07:39:16;16.40;99.90
20722;DHT22;10522;52.198;9.890;2022-09-03T07:41:42;16.40;99.90
20722;DHT22;10522;52.198;9.890;2022-09-03T07:44:10;16.50;99.90
20722;DHT22;10522;52.198;9.890;2022-09-03T07:46:36;16.60;99.90
20722;DHT22;10522;52.198;9.890;2022-09-03T07:49:03;16.70;99.90
20722;DHT22;10522;52.198;9.890;2022-09-03T07:51:35;16.80;99.90
20722;DHT22;10522;52.198;9.890;2022-09-03T07:54:03;16.90;99.90
20722;DHT22;10522;52.198;9.890;2022-09-03T07:56:31;17.10;99.90
20722;DHT22;10522;52.198;9.890;2022-09-03T07:58:59;17.30;99.90
20722;DHT22;10522;52.198;9.890;2022-09-03T08:01:26;17.40;99.90
20722;DHT22;10522;52.198;9.890;2022-09-03T08:03:59;17.40;99.90
20722;DHT22;10522;52.198;9.890;2022-09-03T08:06:27;17.50;99.90
20722;DHT22;10522;52.198;9.890;2022-09-03T08:09:00;17.50;99.90
20722;DHT22;10522;52.198;9.890;2022-09-03T08:11:26;17.60;99.90
20722;DHT22;10522;52.198;9.890;2022-09-03T08:13:55;17.70;99.90
20722;DHT22;10522;52.198;9.890;2022-09-03T08:16:30;17.90;99.90
20722;DHT22;10522;52.198;9.890;2022-09-03T08:18:56;18.00;99.90
20722;DHT22;10522;52.198;9.890;2022-09-03T08:21:22;18.20;99.90
20722;DHT22;10522;52.198;9.890;2022-09-03T08:23:50;18.20;99.90
20722;DHT22;10522;52.198;9.890;2022-09-03T08:26:17;18.30;99.90
20722;DHT22;10522;52.198;9.890;2022-09-03T08:28:44;18.40;99.90
20722;DHT22;10522;52.198;9.890;2022-09-03T08:31:18;18.60;99.90
20722;DHT22;10522;52.198;9.890;2022-09-03T08:33:51;18.60;99.90
20722;DHT22;10522;52.198;9.890;2022-09-03T08:36:20;18.70;99.90
20722;DHT22;10522;52.198;9.890;2022-09-03T08:38:50;18.80;99.90
20722;DHT22;10522;52.198;9.890;2022-09-03T08:44:18;19.10;99.90
20722;DHT22;10522;52.198;9.890;2022-09-03T08:49:40;19.90;99.90
20722;DHT22;10522;52.198;9.890;2022-09-03T08:54:43;20.00;99.90
20722;DHT22;10522;52.198;9.890;2022-09-03T08:57:10;20.00;99.90
20722;DHT22;10522;52.198;9.890;2022-09-03T08:59:36;20.00;99.90
20722;DHT22;10522;52.198;9.890;2022-09-03T09:02:24;20.00;99.90
20722;DHT22;10522;52.198;9.890;2022-09-03T09:05:00;20.20;99.90
20722;DHT22;10522;52.198;9.890;2022-09-03T09:11:07;20.60;99.90
20722;DHT22;10522;52.198;9.890;2022-09-03T09:14:02;20.60;99.90
20722;DHT22;10522;52.198;9.890;2022-09-03T09:21:57;21.10;99.90
20722;DHT22;10522;52.198;9.890;2022-09-03T09:24:26;21.30;99.90
20722;DHT22;10522;52.198;9.890;2022-09-03T09:26:57;21.80;99.90
20722;DHT22;10522;52.198;9.890;2022-09-03T09:29:26;21.60;99.90
20722;DHT22;10522;52.198;9.890;2022-09-03T09:31:52;21.80;99.90
20722;DHT22;10522;52.198;9.890;2022-09-03T09:34:18;22.00;99.90
20722;DHT22;10522;52.198;9.890;2022-09-03T09:36:52;22.00;99.90
20722;DHT22;10522;52.198;9.890;2022-09-03T09:39:19;21.90;99.90
20722;DHT22;10522;52.198;9.890;2022-09-03T09:42:04;21.80;99.90
20722;DHT22;10522;52.198;9.890;2022-09-03T09:44:38;21.80;99.90
20722;DHT22;10522;52.198;9.890;2022-09-03T09:47:15;21.90;99.90
20722;DHT22;10522;52.198;9.890;2022-09-03T09:52:15;22.00;99.90
20722;DHT22;10522;52.198;9.890;2022-09-03T09:54:42;22.20;99.90
20722;DHT22;10522;52.198;9.890;2022-09-03T09:57:15;22.10;99.90
20722;DHT22;10522;52.198;9.890;2022-09-03T09:59:44;22.30;99.90
20722;DHT22;10522;52.198;9.890;2022-09-03T10:02:24;22.60;99.90
20722;DHT22;10522;52.198;9.890;2022-09-03T10:04:55;22.50;99.90
20722;DHT22;10522;52.198;9.890;2022-09-03T10:07:30;22.60;99.90
20722;DHT22;10522;52.198;9.890;2022-09-03T10:10:03;22.40;99.90
20722;DHT22;10522;52.198;9.890;2022-09-03T10:12:40;22.40;99.90
20722;DHT22;10522;52.198;9.890;2022-09-03T10:20:53;22.50;99.90
20722;DHT22;10522;52.198;9.890;2022-09-03T10:23:25;22.80;99.90
20722;DHT22;10522;52.198;9.890;2022-09-03T10:28:37;23.00;99.90
20722;DHT22;10522;52.198;9.890;2022-09-03T10:31:13;22.70;99.90
20722;DHT22;10522;52.198;9.890;2022-09-03T10:33:46;22.80;99.90
20722;DHT22;10522;52.198;9.890;2022-09-03T10:36:30;23.10;99.90
20722;DHT22;10522;52.198;9.890;2022-09-03T10:39:21;22.90;99.90
20722;DHT22;10522;52.198;9.890;2022-09-03T10:45:36;22.90;99.90
20722;DHT22;10522;52.198;9.890;2022-09-03T10:47:50;23.10;99.90
20722;DHT22;10522;52.198;9.890;2022-09-03T10:50:22;23.30;99.90
20722;DHT22;10522;52.198;9.890;2022-09-03T11:07:03;24.20;99.90
20722;DHT22;10522;52.198;9.890;2022-09-03T11:09:40;24.20;99.90
20722;DHT22;10522;52.198;9.890;2022-09-03T11:12:23;24.00;99.90
20722;DHT22;10522;52.198;9.890;2022-09-03T11:15:08;24.10;99.90
20722;DHT22;10522;52.198;9.890;2022-09-03T11:17:47;24.30;99.90
20722;DHT22;10522;52.198;9.890;2022-09-03T11:20:20;24.50;99.90
20722;DHT22;10522;52.198;9.890;2022-09-03T11:22:48;24.60;99.90
20722;DHT22;10522;52.198;9.890;2022-09-03T11:25:18;24.60;99.90
20722;DHT22;10522;52.198;9.890;2022-09-03T11:30:23;24.70;99.90
20722;DHT22;10522;52.198;9.890;2022-09-03T11:32:59;24.60;99.90
20722;DHT22;10522;52.198;9.890;2022-09-03T11:38:04;24.60;99.90
20722;DHT22;10522;52.198;9.890;2022-09-03T11:40:37;24.80;99.90
20722;DHT22;10522;52.198;9.890;2022-09-03T11:43:09;24.80;99.90
20722;DHT22;10522;52.198;9.890;2022-09-03T11:45:38;24.60;99.90
20722;DHT22;10522;52.198;9.890;2022-09-03T11:48:39;24.80;99.90
20722;DHT22;10522;52.198;9.890;2022-09-03T11:51:04;24.40;99.90
20722;DHT22;10522;52.198;9.890;2022-09-03T11:53:56;24.40;99.90
20722;DHT22;10522;52.198;9.890;2022-09-03T11:56:22;24.40;99.90
20722;DHT22;10522;52.198;9.890;2022-09-03T12:01:28;24.80;99.90
20722;DHT22;10522;52.198;9.890;2022-09-03T12:04:01;24.90;99.90
20722;DHT22;10522;52.198;9.890;2022-09-03T12:18:23;24.90;99.90
20722;DHT22;10522;52.198;9.890;2022-09-03T12:26:10;25.50;99.90
20722;DHT22;10522;52.198;9.890;2022-09-03T12:28:41;25.50;99.90
20722;DHT22;10522;52.198;9.890;2022-09-03T12:31:21;25.50;99.90
20722;DHT22;10522;52.198;9.890;2022-09-03T12:34:01;25.50;99.90
20722;DHT22;10522;52.198;9.890;2022-09-03T12:36:44;25.50;99.90
20722;DHT22;10522;52.198;9.890;2022-09-03T12:39:21;25.70;99.90
20722;DHT22;10522;52.198;9.890;2022-09-03T12:44:26;25.50;99.90
20722;DHT22;10522;52.198;9.890;2022-09-03T12:47:10;25.50;99.90
20722;DHT22;10522;52.198;9.890;2022-09-03T12:49:41;25.50;99.90
20722;DHT22;10522;52.198;9.890;2022-09-03T12:52:32;25.40;99.90
20722;DHT22;10522;52.198;9.890;2022-09-03T12:55:03;25.40;99.90
20722;DHT22;10522;52.198;9.890;2022-09-03T12:57:38;25.40;99.90
20722;DHT22;10522;52.198;9.890;2022-09-03T13:00:08;25.80;99.90
20722;DHT22;10522;52.198;9.890;2022-09-03T13:02:50;25.50;99.90
20722;DHT22;10522;52.198;9.890;2022-09-03T13:05:22;25.80;99.90
20722;DHT22;10522;52.198;9.890;2022-09-03T13:07:56;25.50;99.90
20722;DHT22;10522;52.198;9.890;2022-09-03T13:10:26;25.70;99.90
20722;DHT22;10522;52.198;9.890;2022-09-03T13:12:58;25.60;99.90
20722;DHT22;10522;52.198;9.890;2022-09-03T13:15:25;25.60;99.90
20722;DHT22;10522;52.198;9.890;2022-09-03T13:18:18;25.50;99.90
20722;DHT22;10522;52.198;9.890;2022-09-03T13:26:02;25.60;99.90
20722;DHT22;10522;52.198;9.890;2022-09-03T13:28:50;25.80;99.90
20722;DHT22;10522;52.198;9.890;2022-09-03T13:31:51;25.40;99.90
20722;DHT22;10522;52.198;9.890;2022-09-03T13:34:36;25.30;99.90
20722;DHT22;10522;52.198;9.890;2022-09-03T13:37:22;25.40;99.90
20722;DHT22;10522;52.198;9.890;2022-09-03T13:39:57;25.80;99.90
20722;DHT22;10522;52.198;9.890;2022-09-03T13:42:31;25.90;99.90
20722;DHT22;10522;52.198;9.890;2022-09-03T13:45:03;25.80;99.90
20722;DHT22;10522;52.198;9.890;2022-09-03T13:47:44;25.50;99.90
20722;DHT22;10522;52.198;9.890;2022-09-03T13:50:47;25.50;99.90
20722;DHT22;10522;52.198;9.890;2022-09-03T13:53:31;25.10;99.90
20722;DHT22;10522;52.198;9.890;2022-09-03T13:56:13;25.70;99.90
20722;DHT22;10522;52.198;9.890;2022-09-03T13:59:18;25.80;99.90
20722;DHT22;10522;52.198;9.890;2022-09-03T14:10:23;25.70;99.90
20722;DHT22;10522;52.198;9.890;2022-09-03T14:13:18;25.50;99.90
20722;DHT22;10522;52.198;9.890;2022-09-03T14:18:50;25.60;99.90
20722;DHT22;10522;52.198;9.890;2022-09-03T14:21:28;26.00;99.90
20722;DHT22;10522;52.198;9.890;2022-09-03T14:27:05;26.00;99.90
20722;DHT22;10522;52.198;9.890;2022-09-03T14:29:34;25.80;99.90
20722;DHT22;10522;52.198;9.890;2022-09-03T14:40:54;26.20;99.90
20722;DHT22;10522;52.198;9.890;2022-09-03T14:43:49;26.30;99.90
20722;DHT22;10522;52.198;9.890;2022-09-03T14:49:44;26.80;99.90
20722;DHT22;10522;52.198;9.890;2022-09-03T14:52:39;27.30;99.60
20722;DHT22;10522;52.198;9.890;2022-09-03T15:09:19;28.00;97.70
20722;DHT22;10522;52.198;9.890;2022-09-03T15:11:57;28.60;96.80
20722;DHT22;10522;52.198;9.890;2022-09-03T15:14:49;28.60;96.10
20722;DHT22;10522;52.198;9.890;2022-09-03T15:20:31;29.10;96.00
20722;DHT22;10522;52.198;9.890;2022-09-03T15:26:32;28.80;95.10
20722;DHT22;10522;52.198;9.890;2022-09-03T15:29:22;28.60;95.30
20722;DHT22;10522;52.198;9.890;2022-09-03T15:43:20;28.70;94.40
20722;DHT22;10522;52.198;9.890;2022-09-03T15:46:03;28.20;94.20
20722;DHT22;10522;52.198;9.890;2022-09-03T15:49:07;28.70;94.40
20722;DHT22;10522;52.198;9.890;2022-09-03T15:57:25;28.40;94.10
20722;DHT22;10522;52.198;9.890;2022-09-03T16:00:11;28.40;93.90
20722;DHT22;10522;52.198;9.890;2022-09-03T16:02:44;28.20;93.60
20722;DHT22;10522;52.198;9.890;2022-09-03T16:05:20;27.90;93.50
20722;DHT22;10522;52.198;9.890;2022-09-03T16:08:17;27.60;93.80
20722;DHT22;10522;52.198;9.890;2022-09-03T16:11:06;27.80;94.50
20722;DHT22;10522;52.198;9.890;2022-09-03T16:25:26;27.20;93.90
20722;DHT22;10522;52.198;9.890;2022-09-03T16:28:16;27.20;93.70
20722;DHT22;10522;52.198;9.890;2022-09-03T16:34:08;26.90;93.70
20722;DHT22;10522;52.198;9.890;2022-09-03T16:40:00;27.00;94.50
20722;DHT22;10522;52.198;9.890;2022-09-03T16:47:24;26.50;94.40
20722;DHT22;10522;52.198;9.890;2022-09-03T16:51:34;26.20;94.50
20722;DHT22;10522;52.198;9.890;2022-09-03T16:54:52;26.10;94.70
20722;DHT22;10522;52.198;9.890;2022-09-03T17:00:22;26.10;95.00
20722;DHT22;10522;52.198;9.890;2022-09-03T17:05:54;26.00;94.90
20722;DHT22;10522;52.198;9.890;2022-09-03T17:08:50;25.40;95.30
20722;DHT22;10522;52.198;9.890;2022-09-03T17:24:12;23.30;97.30
20722;DHT22;10522;52.198;9.890;2022-09-03T17:46:17;21.40;99.50
20722;DHT22;10522;52.198;9.890;2022-09-03T17:48:48;21.30;99.70
20722;DHT22;10522;52.198;9.890;2022-09-03T17:51:25;21.30;99.90
20722;DHT22;10522;52.198;9.890;2022-09-03T17:54:04;21.20;99.90
20722;DHT22;10522;52.198;9.890;2022-09-03T17:56:39;21.20;99.90
20722;DHT22;10522;52.198;9.890;2022-09-03T17:59:16;21.00;99.90
20722;DHT22;10522;52.198;9.890;2022-09-03T18:02:00;21.00;99.90
20722;DHT22;10522;52.198;9.890;2022-09-03T18:04:53;20.90;99.90
20722;DHT22;10522;52.198;9.890;2022-09-03T18:12:55;20.40;99.90
20722;DHT22;10522;52.198;9.890;2022-09-03T18:15:47;20.40;99.90
20722;DHT22;10522;52.198;9.890;2022-09-03T18:18:28;20.30;99.90
20722;DHT22;10522;52.198;9.890;2022-09-03T18:20:57;20.20;99.90
20722;DHT22;10522;52.198;9.890;2022-09-03T18:23:49;20.20;99.90
20722;DHT22;10522;52.198;9.890;2022-09-03T18:26:41;20.00;99.90
20722;DHT22;10522;52.198;9.890;2022-09-03T18:29:36;19.90;99.90
20722;DHT22;10522;52.198;9.890;2022-09-03T18:32:22;19.70;99.90
20722;DHT22;10522;52.198;9.890;2022-09-03T18:35:07;19.60;99.90
20722;DHT22;10522;52.198;9.890;2022-09-03T18:37:52;19.50;99.90
20722;DHT22;10522;52.198;9.890;2022-09-03T18:40:49;19.40;99.90
20722;DHT22;10522;52.198;9.890;2022-09-03T18:43:41;19.30;99.90
20722;DHT22;10522;52.198;9.890;2022-09-03T18:47:01;19.10;99.90
20722;DHT22;10522;52.198;9.890;2022-09-03T18:50:14;19.00;99.90
20722;DHT22;10522;52.198;9.890;2022-09-03T18:56:44;18.90;99.90
20722;DHT22;10522;52.198;9.890;2022-09-03T19:03:01;18.60;99.90
20722;DHT22;10522;52.198;9.890;2022-09-03T19:09:28;18.40;99.90
20722;DHT22;10522;52.198;9.890;2022-09-03T19:15:46;18.20;99.90
20722;DHT22;10522;52.198;9.890;2022-09-03T19:25:04;18.00;99.90
20722;DHT22;10522;52.198;9.890;2022-09-03T19:52:51;17.30;99.90
20722;DHT22;10522;52.198;9.890;2022-09-03T19:56:07;17.40;99.90
20722;DHT22;10522;52.198;9.890;2022-09-03T19:58:59;17.40;99.90
20722;DHT22;10522;52.198;9.890;2022-09-03T20:01:46;17.40;99.90
20722;DHT22;10522;52.198;9.890;2022-09-03T20:04:32;17.30;99.90
20722;DHT22;10522;52.198;9.890;2022-09-03T20:07:18;17.20;99.90
20722;DHT22;10522;52.198;9.890;2022-09-03T20:10:04;17.20;99.90
20722;DHT22;10522;52.198;9.890;2022-09-03T20:13:04;17.20;99.90
20722;DHT22;10522;52.198;9.890;2022-09-03T20:16:41;17.10;99.90
20722;DHT22;10522;52.198;9.890;2022-09-03T20:21:38;17.30;99.90
20722;DHT22;10522;52.198;9.890;2022-09-03T20:30:06;17.10;99.90
20722;DHT22;10522;52.198;9.890;2022-09-03T20:33:03;17.10;99.90
20722;DHT22;10522;52.198;9.890;2022-09-03T20:44:50;16.80;99.90
20722;DHT22;10522;52.198;9.890;2022-09-03T20:47:24;16.70;99.90
20722;DHT22;10522;52.198;9.890;2022-09-03T21:01:05;16.40;99.90
20722;DHT22;10522;52.198;9.890;2022-09-03T21:14:58;16.10;99.90
20722;DHT22;10522;52.198;9.890;2022-09-03T21:18:10;16.00;99.90
20722;DHT22;10522;52.198;9.890;2022-09-03T21:23:16;15.90;99.90
20722;DHT22;10522;52.198;9.890;2022-09-03T21:25:53;15.90;99.90
20722;DHT22;10522;52.198;9.890;2022-09-03T21:28:24;15.90;99.90
20722;DHT22;10522;52.198;9.890;2022-09-03T21:31:06;15.90;99.90
20722;DHT22;10522;52.198;9.890;2022-09-03T21:33:37;15.80;99.90
20722;DHT22;10522;52.198;9.890;2022-09-03T21:36:19;15.80;99.90
20722;DHT22;10522;52.198;9.890;2022-09-03T21:39:02;15.80;99.90
20722;DHT22;10522;52.198;9.890;2022-09-03T21:41:57;15.70;99.90
20722;DHT22;10522;52.198;9.890;2022-09-03T21:47:08;15.50;99.90
20722;DHT22;10522;52.198;9.890;2022-09-03T21:49:59;15.50;99.90
20722;DHT22;10522;52.198;9.890;2022-09-03T21:55:12;15.40;99.90
20722;DHT22;10522;52.198;9.890;2022-09-03T21:57:54;15.40;99.90
20722;DHT22;10522;52.198;9.890;2022-09-03T22:00:27;15.40;99.90
20722;DHT22;10522;52.198;9.890;2022-09-03T22:02:59;15.40;99.90
20722;DHT22;10522;52.198;9.890;2022-09-03T22:05:33;15.40;99.90
20722;DHT22;10522;52.198;9.890;2022-09-03T22:16:02;15.40;99.90
20722;DHT22;10522;52.198;9.890;2022-09-03T22:18:31;15.40;99.90
20722;DHT22;10522;52.198;9.890;2022-09-03T22:21:16;15.40;99.90